createdAt,value
2022-10-26T00:01:14.608Z,20.50
2022-10-26T00:03:44.866Z,20.50
2022-10-26T00:06:17.890Z,20.50
2022-10-26T00:08:46.076Z,20.40
2022-10-26T00:11:14.200Z,20.40
2022-10-26T00:13:42.794Z,20.40
2022-10-26T00:16:13.159Z,20.40
2022-10-26T00:18:41.428Z,20.30
2022-10-26T00:21:12.400Z,20.30
2022-10-26T00:23:40.440Z,20.30
2022-10-26T00:26:09.196Z,20.30
2022-10-26T00:28:36.769Z,20.30
2022-10-26T00:31:07.987Z,20.20
2022-10-26T00:33:37.092Z,20.20
2022-10-26T00:36:10.233Z,20.20
2022-10-26T00:38:38.625Z,20.20
2022-10-26T00:41:06.367Z,20.20
2022-10-26T00:43:36.081Z,20.10
2022-10-26T00:46:06.934Z,20.10
2022-10-26T00:48:41.285Z,20.10
2022-10-26T00:51:33.754Z,20.10
2022-10-26T00:54:05.211Z,20.00
2022-10-26T00:56:34.789Z,20.00
2022-10-26T00:59:05.519Z,20.00
2022-10-26T01:01:36.153Z,19.90
2022-10-26T01:04:04.285Z,19.90
2022-10-26T01:06:36.484Z,19.90
2022-10-26T01:09:05.564Z,19.90
2022-10-26T01:11:33.438Z,19.90
2022-10-26T01:14:03.855Z,19.90
2022-10-26T01:16:38.340Z,19.90
2022-10-26T01:19:14.783Z,19.80
2022-10-26T01:21:54.776Z,19.80
2022-10-26T01:24:44.123Z,19.80
2022-10-26T01:27:31.951Z,19.80
2022-10-26T01:30:19.901Z,19.80
2022-10-26T01:33:24.674Z,19.70
2022-10-26T01:36:02.658Z,19.70
2022-10-26T01:38:37.155Z,19.70
2022-10-26T01:41:10.909Z,19.70
2022-10-26T01:43:42.225Z,19.70
2022-10-26T01:46:11.883Z,19.70
2022-10-26T01:48:41.857Z,19.70
2022-10-26T01:51:11.407Z,19.70
2022-10-26T01:53:46.784Z,19.70
2022-10-26T01:56:23.453Z,19.70
2022-10-26T01:59:00.920Z,19.70
2022-10-26T02:01:52.139Z,19.70
2022-10-26T02:04:43.273Z,19.70
2022-10-26T02:07:31.541Z,19.60
2022-10-26T02:10:24.897Z,19.60
2022-10-26T02:13:01.914Z,19.50
2022-10-26T02:15:48.541Z,19.50
2022-10-26T02:18:27.023Z,19.50
2022-10-26T02:20:57.452Z,19.50
2022-10-26T02:23:27.873Z,19.50
2022-10-26T02:25:59.137Z,19.50
2022-10-26T02:28:33.249Z,19.50
2022-10-26T02:31:03.140Z,19.50
2022-10-26T02:33:34.063Z,19.50
2022-10-26T02:36:05.374Z,19.50
2022-10-26T02:38:34.968Z,19.50
2022-10-26T02:41:04.226Z,19.50
2022-10-26T02:43:37.593Z,19.50
2022-10-26T02:46:08.931Z,19.50
2022-10-26T02:48:36.705Z,19.50
2022-10-26T02:51:10.911Z,19.40
2022-10-26T02:53:42.422Z,19.40
2022-10-26T02:56:28.738Z,19.40
2022-10-26T02:59:00.240Z,19.40
2022-10-26T03:01:29.080Z,19.40
2022-10-26T03:04:00.546Z,19.40
2022-10-26T03:06:28.349Z,19.40
2022-10-26T03:08:55.616Z,19.40
2022-10-26T03:11:23.586Z,19.40
2022-10-26T03:13:51.147Z,19.40
2022-10-26T03:16:19.227Z,19.40
2022-10-26T03:18:46.715Z,19.40
2022-10-26T03:21:14.321Z,19.40
2022-10-26T03:23:42.245Z,19.40
2022-10-26T03:26:09.775Z,19.40
2022-10-26T03:28:38.001Z,19.40
2022-10-26T03:31:09.117Z,19.40
2022-10-26T03:36:05.230Z,19.40
2022-10-26T03:38:32.932Z,19.40
2022-10-26T03:41:01.023Z,19.40
2022-10-26T03:43:29.122Z,19.30
2022-10-26T03:45:56.889Z,19.30
2022-10-26T03:48:24.763Z,19.30
2022-10-26T03:50:52.300Z,19.30
2022-10-26T03:53:21.126Z,19.30
2022-10-26T03:55:48.944Z,19.30
2022-10-26T03:58:17.872Z,19.20
2022-10-26T04:00:45.637Z,19.20
2022-10-26T04:03:13.145Z,19.20
2022-10-26T04:05:40.919Z,19.20
2022-10-26T04:08:09.209Z,19.20
2022-10-26T04:10:37.392Z,19.20
2022-10-26T04:13:05.825Z,19.20
2022-10-26T04:15:33.207Z,19.20
2022-10-26T04:18:02.490Z,19.30
2022-10-26T04:20:31.768Z,19.30
2022-10-26T04:23:01.481Z,19.30
2022-10-26T04:25:32.927Z,19.30
2022-10-26T04:28:01.209Z,19.30
2022-10-26T04:30:29.109Z,19.30
2022-10-26T04:32:56.862Z,19.30
2022-10-26T04:35:24.948Z,19.30
2022-10-26T04:37:54.430Z,19.30
2022-10-26T04:40:22.196Z,19.30
2022-10-26T04:42:59.038Z,19.30
2022-10-26T04:45:28.723Z,19.30
2022-10-26T04:48:00.529Z,19.40
2022-10-26T04:50:28.540Z,19.40
2022-10-26T04:52:56.282Z,19.30
2022-10-26T04:55:24.364Z,19.30
2022-10-26T04:57:55.957Z,19.40
2022-10-26T05:00:22.949Z,19.40
2022-10-26T05:02:51.156Z,19.50
2022-10-26T05:05:19.801Z,19.50
2022-10-26T05:07:51.976Z,19.50
2022-10-26T05:10:19.708Z,19.50
2022-10-26T05:12:53.940Z,19.50
2022-10-26T05:15:21.434Z,19.50
2022-10-26T05:17:57.779Z,19.50
2022-10-26T05:20:28.631Z,19.50
2022-10-26T05:22:56.980Z,19.50
2022-10-26T05:25:25.278Z,19.50
2022-10-26T05:27:53.284Z,19.40
2022-10-26T05:30:21.339Z,19.40
2022-10-26T05:32:54.767Z,19.40
2022-10-26T05:35:23.462Z,19.50
2022-10-26T05:37:50.901Z,19.50
2022-10-26T05:40:19.105Z,19.50
2022-10-26T05:42:47.610Z,19.50
2022-10-26T05:45:16.024Z,19.60
2022-10-26T05:47:44.897Z,19.60
2022-10-26T05:50:16.243Z,19.60
2022-10-26T05:52:47.683Z,19.60
2022-10-26T05:55:18.086Z,19.60
2022-10-26T05:57:47.673Z,19.60
2022-10-26T06:00:18.937Z,19.60
2022-10-26T06:02:50.603Z,19.60
2022-10-26T06:05:21.983Z,19.60
2022-10-26T06:07:51.184Z,19.60
2022-10-26T06:10:20.627Z,19.60
2022-10-26T06:12:49.411Z,19.60
2022-10-26T06:15:19.973Z,19.60
2022-10-26T06:17:54.071Z,19.60
2022-10-26T06:20:50.808Z,19.60
2022-10-26T06:23:24.887Z,19.60
2022-10-26T06:27:32.961Z,19.60
2022-10-26T06:29:39.958Z,19.60
2022-10-26T06:32:09.819Z,19.60
2022-10-26T06:34:40.927Z,19.60
2022-10-26T06:37:09.181Z,19.60
2022-10-26T06:39:41.002Z,19.70
2022-10-26T06:42:11.902Z,19.70
2022-10-26T06:44:41.107Z,19.70
2022-10-26T06:47:36.600Z,19.70
2022-10-26T06:50:32.175Z,19.70
2022-10-26T06:53:09.516Z,19.80
2022-10-26T06:55:44.316Z,19.80
2022-10-26T06:58:18.353Z,19.80
2022-10-26T07:00:48.528Z,19.80
2022-10-26T07:03:17.537Z,19.80
2022-10-26T07:05:46.373Z,19.70
2022-10-26T07:08:15.165Z,19.80
2022-10-26T07:10:43.658Z,19.80
2022-10-26T07:13:12.852Z,19.80
2022-10-26T07:15:41.156Z,19.80
2022-10-26T07:18:09.821Z,19.80
2022-10-26T07:20:39.513Z,19.90
2022-10-26T07:23:08.623Z,19.90
2022-10-26T07:25:40.441Z,19.90
2022-10-26T07:28:10.622Z,19.90
2022-10-26T07:30:39.308Z,20.00
2022-10-26T07:33:12.268Z,20.00
2022-10-26T07:35:41.546Z,20.00
2022-10-26T07:38:09.728Z,20.00
2022-10-26T07:40:38.207Z,20.10
2022-10-26T07:43:06.366Z,20.10
2022-10-26T07:45:34.558Z,20.10
2022-10-26T07:48:02.088Z,20.10
2022-10-26T07:50:30.104Z,20.20
2022-10-26T07:53:00.562Z,20.20
2022-10-26T07:55:28.345Z,20.30
2022-10-26T07:57:57.566Z,20.30
2022-10-26T08:00:26.237Z,20.30
2022-10-26T08:02:54.836Z,20.30
2022-10-26T08:05:22.312Z,20.30
2022-10-26T08:07:49.840Z,20.40
2022-10-26T08:10:18.599Z,20.40
2022-10-26T08:12:46.071Z,20.40
2022-10-26T08:15:14.175Z,20.40
2022-10-26T08:17:41.755Z,20.40
2022-10-26T08:20:10.060Z,20.40
2022-10-26T08:22:37.753Z,20.40
2022-10-26T08:25:06.873Z,20.40
2022-10-26T08:27:34.233Z,20.40
2022-10-26T08:30:04.724Z,20.30
2022-10-26T08:32:34.507Z,20.30
2022-10-26T08:35:02.471Z,20.40
2022-10-26T08:37:31.108Z,20.40
2022-10-26T08:40:02.226Z,20.40
2022-10-26T08:42:38.587Z,20.40
2022-10-26T08:45:09.966Z,20.40
2022-10-26T08:47:43.873Z,20.40
2022-10-26T08:50:26.845Z,20.50
2022-10-26T08:52:59.705Z,20.50
2022-10-26T08:55:31.153Z,20.60
2022-10-26T08:58:04.919Z,20.60
2022-10-26T09:00:32.736Z,20.70
2022-10-26T09:03:01.009Z,20.70
2022-10-26T09:05:34.784Z,20.70
2022-10-26T09:08:38.498Z,20.70
2022-10-26T09:11:20.953Z,20.70
2022-10-26T09:14:23.959Z,20.80
2022-10-26T09:16:55.650Z,20.80
2022-10-26T09:19:30.027Z,20.80
2022-10-26T09:22:17.976Z,20.90
2022-10-26T09:24:52.480Z,21.00
2022-10-26T09:27:32.134Z,21.00
2022-10-26T09:30:07.920Z,21.10
2022-10-26T09:32:40.249Z,21.10
2022-10-26T09:37:59.105Z,21.10
2022-10-26T09:40:34.652Z,21.10
2022-10-26T09:43:06.113Z,21.10
2022-10-26T09:45:40.314Z,21.20
2022-10-26T09:48:17.622Z,21.20
2022-10-26T09:50:48.796Z,21.20
2022-10-26T09:53:16.759Z,21.30
2022-10-26T09:55:47.791Z,21.30
2022-10-26T09:58:18.889Z,21.30
2022-10-26T10:00:47.213Z,21.30
2022-10-26T10:03:26.660Z,21.40
2022-10-26T10:05:54.970Z,21.40
2022-10-26T10:08:25.222Z,21.50
2022-10-26T10:10:58.960Z,21.50
2022-10-26T10:13:32.065Z,21.60
2022-10-26T10:16:09.012Z,21.60
2022-10-26T10:18:38.538Z,21.70
2022-10-26T10:21:07.668Z,21.70
2022-10-26T10:23:37.981Z,21.90
2022-10-26T10:26:13.092Z,21.90
2022-10-26T10:28:42.780Z,21.90
2022-10-26T10:31:22.684Z,22.00
2022-10-26T10:33:51.255Z,22.00
2022-10-26T10:36:21.286Z,22.10
2022-10-26T10:38:50.483Z,22.20
2022-10-26T10:41:35.411Z,22.20
2022-10-26T10:44:08.681Z,22.30
2022-10-26T10:46:37.881Z,22.30
2022-10-26T10:49:17.912Z,22.40
2022-10-26T10:51:46.769Z,22.50
2022-10-26T10:54:26.849Z,22.60
2022-10-26T10:56:57.893Z,22.70
2022-10-26T10:59:36.078Z,22.70
2022-10-26T11:02:33.546Z,22.80
2022-10-26T11:05:36.115Z,22.90
2022-10-26T11:11:21.620Z,23.10
2022-10-26T11:13:55.728Z,23.20
2022-10-26T11:16:32.541Z,23.20
2022-10-26T11:19:09.781Z,23.30
2022-10-26T11:21:40.383Z,23.20
2022-10-26T11:24:18.507Z,23.10
2022-10-26T11:26:56.853Z,23.20
2022-10-26T11:29:39.359Z,23.20
2022-10-26T11:32:23.792Z,23.30
2022-10-26T11:34:58.031Z,23.50
2022-10-26T11:40:15.519Z,23.70
2022-10-26T11:42:47.255Z,23.80
2022-10-26T11:45:30.653Z,23.90
2022-10-26T11:48:18.004Z,23.60
2022-10-26T11:50:50.028Z,23.60
2022-10-26T11:53:20.436Z,23.70
2022-10-26T11:55:55.728Z,23.80
2022-10-26T11:58:26.335Z,23.90
2022-10-26T12:00:57.839Z,23.90
2022-10-26T12:03:31.806Z,23.90
2022-10-26T12:05:59.580Z,24.10
2022-10-26T12:08:48.307Z,24.20
2022-10-26T12:11:34.985Z,24.40
2022-10-26T12:14:12.109Z,24.60
2022-10-26T12:16:54.103Z,24.60
2022-10-26T12:19:35.119Z,24.70
2022-10-26T12:22:03.836Z,24.80
2022-10-26T12:24:38.061Z,24.60
2022-10-26T12:27:11.123Z,24.40
2022-10-26T12:29:49.741Z,24.40
2022-10-26T12:32:33.141Z,24.40
2022-10-26T12:35:03.022Z,24.30
2022-10-26T12:37:37.743Z,24.40
2022-10-26T12:40:25.417Z,24.50
2022-10-26T12:42:53.308Z,24.60
2022-10-26T12:48:38.910Z,24.70
2022-10-26T12:50:54.626Z,24.90
2022-10-26T12:53:22.851Z,24.60
2022-10-26T12:56:03.098Z,24.40
2022-10-26T12:58:49.151Z,24.40
2022-10-26T13:01:35.698Z,24.70
2022-10-26T13:04:13.256Z,24.80
2022-10-26T13:07:02.789Z,24.80
2022-10-26T13:09:34.209Z,25.00
2022-10-26T13:12:03.876Z,25.20
2022-10-26T13:14:42.623Z,25.50
2022-10-26T13:17:13.887Z,25.70
2022-10-26T13:19:47.427Z,26.00
2022-10-26T13:22:18.541Z,26.30
2022-10-26T13:24:55.451Z,26.50
2022-10-26T13:27:25.862Z,26.70
2022-10-26T13:30:12.244Z,27.00
2022-10-26T13:32:42.713Z,27.40
2022-10-26T13:35:14.821Z,27.70
2022-10-26T13:37:47.242Z,27.70
2022-10-26T13:40:21.411Z,27.30
2022-10-26T13:42:52.896Z,27.30
2022-10-26T13:45:32.337Z,27.40
2022-10-26T13:48:03.993Z,27.50
2022-10-26T13:50:36.082Z,27.80
2022-10-26T13:53:19.718Z,27.60
2022-10-26T13:55:54.101Z,28.00
2022-10-26T13:58:42.121Z,28.40
2022-10-26T14:01:16.358Z,28.80
2022-10-26T14:03:44.355Z,29.50
2022-10-26T14:06:21.807Z,30.10
2022-10-26T14:08:50.900Z,30.60
2022-10-26T14:11:24.988Z,30.70
2022-10-26T14:13:52.852Z,30.70
2022-10-26T14:16:22.175Z,31.10
2022-10-26T14:18:49.742Z,31.90
2022-10-26T14:21:20.235Z,32.70
2022-10-26T14:23:58.099Z,33.50
2022-10-26T14:26:29.173Z,33.70
2022-10-26T14:29:01.553Z,33.80
2022-10-26T14:31:31.435Z,34.00
2022-10-26T14:34:00.621Z,34.20
2022-10-26T14:36:41.443Z,34.00
2022-10-26T14:39:18.717Z,34.10
2022-10-26T14:41:47.057Z,34.30
2022-10-26T14:44:17.622Z,34.40
2022-10-26T14:46:46.785Z,34.50
2022-10-26T14:49:23.870Z,34.60
2022-10-26T14:52:06.091Z,34.20
2022-10-26T14:54:34.882Z,34.10
2022-10-26T14:57:04.258Z,33.80
2022-10-26T14:59:32.550Z,33.50
2022-10-26T15:02:13.465Z,33.30
2022-10-26T15:04:44.513Z,33.10
2022-10-26T15:07:19.295Z,33.00
2022-10-26T15:09:51.473Z,32.30
2022-10-26T15:12:34.778Z,32.30
2022-10-26T15:15:18.781Z,32.30
2022-10-26T15:18:00.299Z,32.30
2022-10-26T15:20:29.857Z,32.10
2022-10-26T15:23:01.115Z,31.80
2022-10-26T15:25:31.905Z,31.50
2022-10-26T15:28:32.988Z,31.10
2022-10-26T15:31:07.564Z,30.80
2022-10-26T15:33:45.317Z,30.20
2022-10-26T15:36:16.517Z,29.70
2022-10-26T15:38:45.007Z,29.40
2022-10-26T15:41:33.824Z,29.20
2022-10-26T15:44:06.489Z,29.00
2022-10-26T15:46:37.328Z,28.70
2022-10-26T15:49:07.498Z,28.50
2022-10-26T15:51:35.590Z,28.10
2022-10-26T15:54:04.875Z,27.90
2022-10-26T15:56:32.745Z,27.60
2022-10-26T15:59:00.125Z,27.30
2022-10-26T16:01:29.514Z,27.10
2022-10-26T16:03:57.076Z,26.90
2022-10-26T16:06:31.269Z,26.60
2022-10-26T16:09:01.790Z,26.40
2022-10-26T16:11:29.799Z,26.10
2022-10-26T16:14:03.588Z,25.90
2022-10-26T16:16:30.072Z,25.70
2022-10-26T16:19:18.565Z,25.50
2022-10-26T16:21:27.736Z,25.30
2022-10-26T16:23:57.421Z,25.20
2022-10-26T16:26:25.466Z,25.00
2022-10-26T16:28:52.853Z,24.90
2022-10-26T16:31:21.158Z,24.80
2022-10-26T16:33:48.729Z,24.70
2022-10-26T16:36:17.226Z,24.50
2022-10-26T16:38:45.082Z,24.40
2022-10-26T16:41:14.937Z,24.30
2022-10-26T16:43:45.331Z,24.20
2022-10-26T16:46:17.012Z,24.10
2022-10-26T16:48:46.522Z,24.00
2022-10-26T16:51:16.814Z,23.90
2022-10-26T16:53:50.860Z,23.80
2022-10-26T16:56:22.572Z,23.70
2022-10-26T16:58:50.657Z,23.60
2022-10-26T17:01:21.687Z,23.60
2022-10-26T17:03:51.060Z,23.50
2022-10-26T17:06:18.792Z,23.50
2022-10-26T17:08:46.974Z,23.40
2022-10-26T17:11:17.410Z,23.30
2022-10-26T17:13:45.818Z,23.30
2022-10-26T17:16:19.269Z,23.20
2022-10-26T17:18:47.970Z,23.10
2022-10-26T17:21:17.372Z,23.10
2022-10-26T17:23:45.470Z,23.00
2022-10-26T17:26:14.804Z,23.00
2022-10-26T17:28:42.268Z,22.90
2022-10-26T17:31:15.916Z,22.80
2022-10-26T17:33:44.802Z,22.80
2022-10-26T17:36:14.261Z,22.80
2022-10-26T17:38:42.728Z,22.70
2022-10-26T17:41:14.507Z,22.70
2022-10-26T17:43:44.047Z,22.70
2022-10-26T17:46:14.397Z,22.60
2022-10-26T17:48:55.828Z,22.60
2022-10-26T17:51:24.600Z,22.50
2022-10-26T17:53:53.212Z,22.40
2022-10-26T17:56:23.184Z,22.40
2022-10-26T17:58:53.552Z,22.40
2022-10-26T18:01:21.403Z,22.40
2022-10-26T18:03:49.302Z,22.30
2022-10-26T18:06:17.748Z,22.30
2022-10-26T18:08:45.852Z,22.30
2022-10-26T18:11:16.068Z,22.30
2022-10-26T18:13:44.125Z,22.20
2022-10-26T18:16:14.343Z,22.20
2022-10-26T18:18:44.670Z,22.10
2022-10-26T18:21:13.888Z,22.10
2022-10-26T18:23:41.825Z,22.10
2022-10-26T18:26:13.156Z,22.10
2022-10-26T18:28:41.754Z,22.00
2022-10-26T18:31:12.063Z,22.00
2022-10-26T18:33:39.949Z,22.00
2022-10-26T18:36:10.300Z,22.00
2022-10-26T18:38:40.521Z,21.90
2022-10-26T18:41:10.179Z,21.90
2022-10-26T18:43:45.235Z,21.90
2022-10-26T18:46:18.994Z,21.90
2022-10-26T18:48:45.409Z,21.80
2022-10-26T18:51:15.767Z,21.80
2022-10-26T18:53:46.249Z,21.80
2022-10-26T18:56:17.433Z,21.70
2022-10-26T18:58:49.167Z,21.70
2022-10-26T19:01:23.610Z,21.70
2022-10-26T19:03:59.964Z,21.70
2022-10-26T19:06:31.180Z,21.60
2022-10-26T19:08:59.334Z,21.60
2022-10-26T19:11:29.122Z,21.60
2022-10-26T19:13:57.524Z,21.60
2022-10-26T19:16:44.758Z,21.60
2022-10-26T19:18:58.050Z,21.50
2022-10-26T19:21:26.787Z,21.50
2022-10-26T19:23:56.571Z,21.50
2022-10-26T19:26:30.656Z,21.50
2022-10-26T19:28:59.708Z,21.50
2022-10-26T19:31:28.547Z,21.50
2022-10-26T19:33:57.549Z,21.50
2022-10-26T19:36:25.817Z,21.40
2022-10-26T19:38:54.176Z,21.40
2022-10-26T19:41:23.543Z,21.40
2022-10-26T19:43:51.568Z,21.30
2022-10-26T19:46:21.457Z,21.30
2022-10-26T19:48:52.029Z,21.30
2022-10-26T19:51:20.125Z,21.30
2022-10-26T19:53:47.555Z,21.30
2022-10-26T19:56:16.947Z,21.30
2022-10-26T19:58:45.456Z,21.30
2022-10-26T20:01:23.403Z,21.30
2022-10-26T20:03:51.551Z,21.20
2022-10-26T20:06:18.980Z,21.20
2022-10-26T20:08:48.735Z,21.20
2022-10-26T20:11:17.928Z,21.10
2022-10-26T20:13:46.907Z,21.20
2022-10-26T20:16:17.942Z,21.20
2022-10-26T20:18:48.085Z,21.10
2022-10-26T20:21:16.469Z,21.10
2022-10-26T20:23:44.900Z,21.10
2022-10-26T20:26:18.907Z,21.10
2022-10-26T20:28:46.069Z,21.10
2022-10-26T20:31:13.652Z,21.00
2022-10-26T20:33:41.625Z,21.00
2022-10-26T20:36:09.579Z,21.00
2022-10-26T20:38:38.908Z,21.00
2022-10-26T20:41:10.301Z,21.00
2022-10-26T20:43:39.627Z,20.90
2022-10-26T20:46:10.706Z,20.90
2022-10-26T20:48:39.216Z,20.90
2022-10-26T20:51:10.286Z,20.80
2022-10-26T20:53:53.813Z,20.90
2022-10-26T20:56:25.593Z,20.80
2022-10-26T20:58:55.971Z,20.80
2022-10-26T21:01:30.003Z,20.80
2022-10-26T21:04:00.226Z,20.80
2022-10-26T21:06:28.908Z,20.90
2022-10-26T21:08:57.829Z,20.90
2022-10-26T21:11:26.284Z,20.80
2022-10-26T21:13:54.690Z,20.80
2022-10-26T21:18:50.244Z,20.80
2022-10-26T21:21:17.751Z,20.80
2022-10-26T21:23:46.188Z,20.80
2022-10-26T21:26:13.891Z,20.70
2022-10-26T21:28:46.271Z,20.70
2022-10-26T21:31:15.886Z,20.70
2022-10-26T21:33:43.769Z,20.60
2022-10-26T21:36:12.710Z,20.60
2022-10-26T21:38:43.263Z,20.60
2022-10-26T21:41:13.730Z,20.60
2022-10-26T21:43:43.453Z,20.50
2022-10-26T21:46:11.345Z,20.50
2022-10-26T21:48:41.162Z,20.40
2022-10-26T21:51:15.315Z,20.40
2022-10-26T21:53:43.065Z,20.40
2022-10-26T21:56:16.905Z,20.40
2022-10-26T21:58:45.246Z,20.30
2022-10-26T22:01:15.594Z,20.30
2022-10-26T22:03:44.235Z,20.30
2022-10-26T22:06:13.901Z,20.30
2022-10-26T22:08:41.900Z,20.30
2022-10-26T22:11:23.162Z,20.30
2022-10-26T22:13:51.929Z,20.30
2022-10-26T22:16:22.687Z,20.30
2022-10-26T22:18:51.960Z,20.30
2022-10-26T22:21:21.331Z,20.20
2022-10-26T22:23:50.084Z,20.20
2022-10-26T22:26:23.092Z,20.30
2022-10-26T22:28:53.650Z,20.20
2022-10-26T22:31:27.543Z,20.20
2022-10-26T22:34:00.866Z,20.20
2022-10-26T22:36:29.233Z,20.20
2022-10-26T22:38:56.612Z,20.20
2022-10-26T22:41:25.085Z,20.20
2022-10-26T22:43:52.539Z,20.20
2022-10-26T22:46:25.777Z,20.10
2022-10-26T22:49:03.915Z,20.20
2022-10-26T22:51:34.910Z,20.20
2022-10-26T22:54:04.049Z,20.10
2022-10-26T22:56:33.306Z,20.10
2022-10-26T22:59:00.989Z,20.10
2022-10-26T23:01:31.805Z,20.00
2022-10-26T23:04:00.272Z,20.10
2022-10-26T23:06:29.345Z,20.00
2022-10-26T23:08:57.443Z,20.00
2022-10-26T23:11:27.040Z,20.00
2022-10-26T23:13:56.857Z,20.00
2022-10-26T23:16:25.441Z,20.00
2022-10-26T23:18:53.620Z,20.00
2022-10-26T23:21:22.750Z,20.00
2022-10-26T23:23:50.579Z,20.00
2022-10-26T23:26:21.063Z,20.00
2022-10-26T23:28:49.485Z,20.00
2022-10-26T23:31:22.682Z,19.90
2022-10-26T23:33:51.408Z,19.90
2022-10-26T23:36:19.888Z,19.90
2022-10-26T23:38:48.432Z,19.90
2022-10-26T23:41:16.022Z,19.90
2022-10-26T23:43:43.668Z,19.90
2022-10-26T23:46:11.630Z,19.90
2022-10-26T23:48:39.234Z,19.90
2022-10-26T23:51:06.796Z,19.90
2022-10-26T23:53:34.560Z,19.90
2022-10-26T23:56:02.330Z,19.80
2022-10-26T23:58:30.095Z,19.80
